createdAt,value
2018-07-21T00:00:26.170Z,22.99
2018-07-21T00:02:54.652Z,22.99
2018-07-21T00:05:23.134Z,23.01
2018-07-21T00:07:52.827Z,23.06
2018-07-21T00:10:22.763Z,23.08
2018-07-21T00:12:51.793Z,23.12
2018-07-21T00:15:20.704Z,23.13
2018-07-21T00:17:49.514Z,23.11
2018-07-21T00:20:17.955Z,23.08
2018-07-21T00:22:46.842Z,23.06
2018-07-21T00:25:15.700Z,23.02
2018-07-21T00:27:44.273Z,22.99
2018-07-21T00:30:13.205Z,22.96
2018-07-21T00:32:41.834Z,22.95
2018-07-21T00:35:10.342Z,22.90
2018-07-21T00:37:39.569Z,22.83
2018-07-21T00:40:08.324Z,22.81
2018-07-21T00:42:36.809Z,22.79
2018-07-21T00:45:05.958Z,22.75
2018-07-21T00:47:34.925Z,22.72
2018-07-21T00:50:04.061Z,22.70
2018-07-21T00:52:32.885Z,22.67
2018-07-21T00:55:01.646Z,22.61
2018-07-21T00:57:30.132Z,22.57
2018-07-21T00:59:59.498Z,22.48
2018-07-21T01:02:28.424Z,22.39
2018-07-21T01:04:57.137Z,22.34
2018-07-21T01:07:26.780Z,22.27
2018-07-21T01:09:55.285Z,22.20
2018-07-21T01:12:24.033Z,22.16
2018-07-21T01:14:52.930Z,22.12
2018-07-21T01:17:21.701Z,22.08
2018-07-21T01:19:50.366Z,22.06
2018-07-21T01:22:19.287Z,22.02
2018-07-21T01:24:48.046Z,21.97
2018-07-21T01:27:16.825Z,21.93
2018-07-21T01:29:45.665Z,21.93
2018-07-21T01:32:14.717Z,21.93
2018-07-21T01:34:43.501Z,21.95
2018-07-21T01:37:12.220Z,21.97
2018-07-21T01:39:40.657Z,22.01
2018-07-21T01:42:09.754Z,22.05
2018-07-21T01:44:38.908Z,22.10
2018-07-21T01:47:07.410Z,22.11
2018-07-21T01:49:36.401Z,22.11
2018-07-21T01:52:05.267Z,22.11
2018-07-21T01:54:33.730Z,22.13
2018-07-21T01:57:02.209Z,22.13
2018-07-21T01:59:31.332Z,22.15
2018-07-21T02:01:59.832Z,22.15
2018-07-21T02:04:28.708Z,22.15
2018-07-21T02:06:57.668Z,22.13
2018-07-21T02:09:26.513Z,22.14
2018-07-21T02:11:55.002Z,22.18
2018-07-21T02:14:24.141Z,22.20
2018-07-21T02:16:53.166Z,22.19
2018-07-21T02:19:21.679Z,22.18
2018-07-21T02:21:50.399Z,22.16
2018-07-21T02:24:18.873Z,22.17
2018-07-21T02:26:47.350Z,22.15
2018-07-21T02:29:16.414Z,22.11
2018-07-21T02:31:45.452Z,22.11
2018-07-21T02:34:13.917Z,22.13
2018-07-21T02:36:42.828Z,22.14
2018-07-21T02:39:12.804Z,22.16
2018-07-21T02:41:41.740Z,22.18
2018-07-21T02:44:10.409Z,22.16
2018-07-21T02:46:38.966Z,22.14
2018-07-21T02:49:07.437Z,22.13
2018-07-21T02:51:36.176Z,22.14
2018-07-21T02:54:04.805Z,22.15
2018-07-21T02:56:33.650Z,22.17
2018-07-21T02:59:02.377Z,22.16
2018-07-21T03:01:30.825Z,22.14
2018-07-21T03:03:59.613Z,22.08
2018-07-21T03:06:28.400Z,22.05
2018-07-21T03:08:56.874Z,22.02
2018-07-21T03:11:25.357Z,21.99
2018-07-21T03:13:56.649Z,21.96
2018-07-21T03:16:25.298Z,21.93
2018-07-21T03:18:54.525Z,21.95
2018-07-21T03:21:23.146Z,21.96
2018-07-21T03:23:51.995Z,21.94
2018-07-21T03:26:20.838Z,21.90
2018-07-21T03:28:49.366Z,21.93
2018-07-21T03:31:18.774Z,21.93
2018-07-21T03:33:47.925Z,21.90
2018-07-21T03:36:16.399Z,21.88
2018-07-21T03:38:45.009Z,21.86
2018-07-21T03:41:13.904Z,21.85
2018-07-21T03:43:42.381Z,21.82
2018-07-21T03:46:10.845Z,21.84
2018-07-21T03:48:39.944Z,21.82
2018-07-21T03:51:08.809Z,21.81
2018-07-21T03:53:37.387Z,21.79
2018-07-21T03:56:06.398Z,21.81
2018-07-21T03:58:35.096Z,21.80
2018-07-21T04:01:03.605Z,21.82
2018-07-21T04:03:32.686Z,21.82
2018-07-21T04:06:01.575Z,21.82
2018-07-21T04:08:30.725Z,21.84
2018-07-21T04:10:59.842Z,21.81
2018-07-21T04:13:28.285Z,21.83
2018-07-21T04:15:56.745Z,21.86
2018-07-21T04:18:25.729Z,21.91
2018-07-21T04:20:54.181Z,21.93
2018-07-21T04:23:23.189Z,21.92
2018-07-21T04:25:52.433Z,21.91
2018-07-21T04:28:21.010Z,21.89
2018-07-21T04:30:50.121Z,21.85
2018-07-21T04:33:19.389Z,21.83
2018-07-21T04:35:47.846Z,21.84
2018-07-21T04:38:16.509Z,21.85
2018-07-21T04:40:45.376Z,21.82
2018-07-21T04:43:13.813Z,21.82
2018-07-21T04:45:42.271Z,21.83
2018-07-21T04:48:11.559Z,21.82
2018-07-21T04:50:40.018Z,21.81
2018-07-21T04:53:08.958Z,21.79
2018-07-21T04:55:38.441Z,21.74
2018-07-21T04:58:06.964Z,21.74
2018-07-21T05:00:35.448Z,21.72
2018-07-21T05:03:04.472Z,21.71
2018-07-21T05:05:32.977Z,21.70
2018-07-21T05:08:01.729Z,21.67
2018-07-21T05:10:30.954Z,21.67
2018-07-21T05:12:59.653Z,21.68
2018-07-21T05:15:28.345Z,21.71
2018-07-21T05:17:56.945Z,21.73
2018-07-21T05:20:25.706Z,21.71
2018-07-21T05:22:54.161Z,21.67
2018-07-21T05:25:23.289Z,21.67
2018-07-21T05:27:53.046Z,21.68
2018-07-21T05:30:22.009Z,21.71
2018-07-21T05:32:51.170Z,21.73
2018-07-21T05:35:20.110Z,21.77
2018-07-21T05:37:48.989Z,21.79
2018-07-21T05:40:17.875Z,21.83
2018-07-21T05:42:46.617Z,21.86
2018-07-21T05:45:15.151Z,21.88
2018-07-21T05:47:44.010Z,21.91
2018-07-21T05:50:12.613Z,21.94
2018-07-21T05:52:41.433Z,21.97
2018-07-21T05:55:10.288Z,21.99
2018-07-21T05:57:38.776Z,22.00
2018-07-21T06:00:10.622Z,22.02
2018-07-21T06:02:40.086Z,22.05
2018-07-21T06:05:08.526Z,22.08
2018-07-21T06:07:37.201Z,22.09
2018-07-21T06:10:06.010Z,22.09
2018-07-21T06:12:34.565Z,22.12
2018-07-21T06:15:04.129Z,22.14
2018-07-21T06:17:33.370Z,22.14
2018-07-21T06:20:02.077Z,22.12
2018-07-21T06:22:31.109Z,22.11
2018-07-21T06:25:00.069Z,22.19
2018-07-21T06:27:28.520Z,22.24
2018-07-21T06:29:57.212Z,22.30
2018-07-21T06:32:26.083Z,22.34
2018-07-21T06:34:54.546Z,22.27
2018-07-21T06:37:24.075Z,22.38
2018-07-21T06:39:54.029Z,22.46
2018-07-21T06:42:22.953Z,22.52
2018-07-21T06:44:51.447Z,22.60
2018-07-21T06:47:20.522Z,22.73
2018-07-21T06:49:49.020Z,22.83
2018-07-21T06:52:17.513Z,22.89
2018-07-21T06:54:46.416Z,22.93
2018-07-21T06:57:15.134Z,22.94
2018-07-21T06:59:43.638Z,22.95
2018-07-21T07:02:12.765Z,22.98
2018-07-21T07:04:41.565Z,23.05
2018-07-21T07:07:10.009Z,23.14
2018-07-21T07:09:38.935Z,23.27
2018-07-21T07:12:08.856Z,23.38
2018-07-21T07:14:37.309Z,23.45
2018-07-21T07:17:06.440Z,23.51
2018-07-21T07:19:35.211Z,23.51
2018-07-21T07:22:03.717Z,23.51
2018-07-21T07:24:32.477Z,23.50
2018-07-21T07:27:01.307Z,23.49
2018-07-21T07:29:29.775Z,23.39
2018-07-21T07:31:58.289Z,23.34
2018-07-21T07:34:27.016Z,23.30
2018-07-21T07:36:55.473Z,23.30
2018-07-21T07:39:24.519Z,23.33
2018-07-21T07:41:53.388Z,23.38
2018-07-21T07:44:22.073Z,23.43
2018-07-21T07:46:51.654Z,23.42
2018-07-21T07:49:20.445Z,23.43
2018-07-21T07:51:49.357Z,23.47
2018-07-21T07:54:18.114Z,23.52
2018-07-21T07:56:46.589Z,23.59
2018-07-21T07:59:15.412Z,23.72
2018-07-21T08:01:44.375Z,23.77
2018-07-21T08:04:12.821Z,23.81
2018-07-21T08:06:41.774Z,23.91
2018-07-21T08:09:12.301Z,24.08
2018-07-21T08:11:41.553Z,24.41
2018-07-21T08:14:10.025Z,24.72
2018-07-21T08:16:39.221Z,25.00
2018-07-21T08:19:09.020Z,25.23
2018-07-21T08:21:37.581Z,25.31
2018-07-21T08:24:06.759Z,25.33
2018-07-21T08:26:35.213Z,25.30
2018-07-21T08:29:03.737Z,25.64
2018-07-21T08:31:32.922Z,25.80
2018-07-21T08:34:01.530Z,25.95
2018-07-21T08:36:29.983Z,25.99
2018-07-21T08:38:58.936Z,25.87
2018-07-21T08:41:27.790Z,25.85
2018-07-21T08:43:56.297Z,25.83
2018-07-21T08:46:24.974Z,25.88
2018-07-21T08:48:54.016Z,25.96
2018-07-21T08:51:22.449Z,26.05
2018-07-21T08:53:51.581Z,26.07
2018-07-21T08:56:20.174Z,26.16
2018-07-21T08:58:49.086Z,26.29
2018-07-21T09:01:17.977Z,26.41
2018-07-21T09:03:46.469Z,26.48
2018-07-21T09:06:15.163Z,26.60
2018-07-21T09:08:43.654Z,26.69
2018-07-21T09:11:12.423Z,26.74
2018-07-21T09:13:41.196Z,26.89
2018-07-21T09:16:10.065Z,27.13
2018-07-21T09:18:38.759Z,27.11
2018-07-21T09:21:07.264Z,27.17
2018-07-21T09:23:36.277Z,27.32
2018-07-21T09:26:04.929Z,27.68
2018-07-21T09:28:33.381Z,28.16
2018-07-21T09:31:01.989Z,28.70
2018-07-21T09:33:30.663Z,28.80
2018-07-21T09:36:03.782Z,29.42
2018-07-21T09:38:32.837Z,30.04
2018-07-21T09:41:01.285Z,30.48
2018-07-21T09:43:30.151Z,30.55
2018-07-21T09:45:59.286Z,30.43
2018-07-21T09:48:27.773Z,30.34
2018-07-21T09:50:56.844Z,29.93
2018-07-21T09:53:25.555Z,29.62
2018-07-21T09:55:54.151Z,29.70
2018-07-21T09:58:22.786Z,29.83
2018-07-21T10:00:56.619Z,30.31
2018-07-21T10:03:25.896Z,30.39
2018-07-21T10:05:55.075Z,30.47
2018-07-21T10:08:23.641Z,30.60
2018-07-21T10:10:54.365Z,30.82
2018-07-21T10:13:22.869Z,31.40
2018-07-21T10:15:51.949Z,31.78
2018-07-21T10:18:20.718Z,31.36
2018-07-21T10:20:49.177Z,31.22
2018-07-21T10:23:17.892Z,31.79
2018-07-21T10:25:52.202Z,32.21
2018-07-21T10:28:26.052Z,32.06
2018-07-21T10:30:54.919Z,31.60
2018-07-21T10:33:24.176Z,31.10
2018-07-21T10:35:52.701Z,31.17
2018-07-21T10:38:21.581Z,31.72
2018-07-21T10:40:50.139Z,32.36
2018-07-21T10:43:18.751Z,32.71
2018-07-21T10:45:47.561Z,32.55
2018-07-21T10:48:16.045Z,32.58
2018-07-21T10:50:44.556Z,32.93
2018-07-21T10:53:13.393Z,33.15
2018-07-21T10:55:42.153Z,33.10
2018-07-21T10:58:10.693Z,33.15
2018-07-21T11:00:39.170Z,33.05
2018-07-21T11:03:07.927Z,33.18
2018-07-21T11:05:36.378Z,33.32
2018-07-21T11:08:05.488Z,33.36
2018-07-21T11:10:34.293Z,34.04
2018-07-21T11:13:02.941Z,34.54
2018-07-21T11:15:31.624Z,34.76
2018-07-21T11:18:01.123Z,34.91
2018-07-21T11:20:29.993Z,34.83
2018-07-21T11:22:58.500Z,34.42
2018-07-21T11:25:27.010Z,33.70
2018-07-21T11:27:56.010Z,33.16
2018-07-21T11:30:24.970Z,32.79
2018-07-21T11:32:53.678Z,32.88
2018-07-21T11:35:22.951Z,32.75
2018-07-21T11:37:51.445Z,32.69
2018-07-21T11:40:20.429Z,33.05
2018-07-21T11:42:49.030Z,33.16
2018-07-21T11:45:17.945Z,33.35
2018-07-21T11:47:46.373Z,33.63
2018-07-21T11:50:14.828Z,34.09
2018-07-21T11:52:43.664Z,34.16
2018-07-21T11:55:12.094Z,34.28
2018-07-21T11:57:40.541Z,34.77
2018-07-21T12:00:10.048Z,35.15
2018-07-21T12:02:39.134Z,35.41
2018-07-21T12:05:07.588Z,35.47
2018-07-21T12:07:36.744Z,35.21
2018-07-21T12:10:05.741Z,34.97
2018-07-21T12:12:34.200Z,34.45
2018-07-21T12:15:02.705Z,33.80
2018-07-21T12:17:31.557Z,33.58
2018-07-21T12:20:00.018Z,33.82
2018-07-21T12:22:28.901Z,34.22
2018-07-21T12:24:57.603Z,34.77
2018-07-21T12:27:26.311Z,35.14
2018-07-21T12:29:55.005Z,35.12
2018-07-21T12:32:23.881Z,35.15
2018-07-21T12:34:52.667Z,34.89
2018-07-21T12:37:21.146Z,35.28
2018-07-21T12:39:49.605Z,35.61
2018-07-21T12:42:18.406Z,35.87
2018-07-21T12:44:47.042Z,34.95
2018-07-21T12:47:15.515Z,34.70
2018-07-21T12:49:44.676Z,34.75
2018-07-21T12:52:13.149Z,34.79
2018-07-21T12:54:44.511Z,34.97
2018-07-21T12:57:13.433Z,34.47
2018-07-21T12:59:41.957Z,33.15
2018-07-21T13:02:10.457Z,33.69
2018-07-21T13:04:38.969Z,33.94
2018-07-21T13:07:08.236Z,34.57
2018-07-21T13:09:36.756Z,34.88
2018-07-21T13:12:05.518Z,34.55
2018-07-21T13:14:34.137Z,32.53
2018-07-21T13:17:05.189Z,31.51
2018-07-21T13:19:34.001Z,31.41
2018-07-21T13:22:02.926Z,31.39
2018-07-21T13:24:31.601Z,31.26
2018-07-21T13:27:00.072Z,31.17
2018-07-21T13:29:29.129Z,31.03
2018-07-21T13:31:57.839Z,30.85
2018-07-21T13:34:26.329Z,30.72
2018-07-21T13:36:55.222Z,30.55
2018-07-21T13:39:23.692Z,30.40
2018-07-21T13:41:52.374Z,30.32
2018-07-21T13:44:21.115Z,30.24
2018-07-21T13:46:49.581Z,30.22
2018-07-21T13:49:18.029Z,30.18
2018-07-21T13:51:47.063Z,30.04
2018-07-21T13:54:15.833Z,30.00
2018-07-21T13:56:44.315Z,29.94
2018-07-21T13:59:12.889Z,29.89
2018-07-21T14:01:42.217Z,29.90
2018-07-21T14:04:10.673Z,29.96
2018-07-21T14:06:39.417Z,29.88
2018-07-21T14:09:09.237Z,29.82
2018-07-21T14:11:38.426Z,29.89
2018-07-21T14:14:07.565Z,30.25
2018-07-21T14:16:36.477Z,30.91
2018-07-21T14:19:05.446Z,31.70
2018-07-21T14:21:34.361Z,32.44
2018-07-21T14:24:03.461Z,33.11
2018-07-21T14:26:32.548Z,33.27
2018-07-21T14:29:01.880Z,33.31
2018-07-21T14:31:30.341Z,33.34
2018-07-21T14:33:58.985Z,33.64
2018-07-21T14:36:28.342Z,34.43
2018-07-21T14:38:56.759Z,35.35
2018-07-21T14:41:25.201Z,36.12
2018-07-21T14:43:54.307Z,36.49
2018-07-21T14:46:23.639Z,36.48
2018-07-21T14:48:53.065Z,36.65
2018-07-21T14:51:25.557Z,36.27
2018-07-21T14:53:54.761Z,36.45
2018-07-21T14:56:23.653Z,36.99
2018-07-21T14:58:53.213Z,36.64
2018-07-21T15:01:22.584Z,35.83
2018-07-21T15:03:57.766Z,35.71
2018-07-21T15:06:26.585Z,36.06
2018-07-21T15:08:55.110Z,35.98
2018-07-21T15:11:23.845Z,35.33
2018-07-21T15:13:52.686Z,34.83
2018-07-21T15:16:22.278Z,34.49
2018-07-21T15:18:51.091Z,34.62
2018-07-21T15:21:20.073Z,35.31
2018-07-21T15:23:48.529Z,35.10
2018-07-21T15:26:17.545Z,34.66
2018-07-21T15:28:46.749Z,34.69
2018-07-21T15:31:15.300Z,35.00
2018-07-21T15:33:45.743Z,35.35
2018-07-21T15:36:15.057Z,35.93
2018-07-21T15:38:43.567Z,36.48
2018-07-21T15:41:12.019Z,36.83
2018-07-21T15:43:41.237Z,36.91
2018-07-21T15:46:09.698Z,36.61
2018-07-21T15:48:38.144Z,35.65
2018-07-21T15:51:07.147Z,34.60
2018-07-21T15:53:35.597Z,33.26
2018-07-21T15:56:04.066Z,32.57
2018-07-21T15:58:33.248Z,31.84
2018-07-21T16:01:01.706Z,31.51
2018-07-21T16:03:30.194Z,31.35
2018-07-21T16:05:59.462Z,30.75
2018-07-21T16:08:34.800Z,30.30
2018-07-21T16:11:03.317Z,29.83
2018-07-21T16:13:32.254Z,29.44
2018-07-21T16:16:00.788Z,29.14
2018-07-21T16:18:29.807Z,28.89
2018-07-21T16:21:00.576Z,28.67
2018-07-21T16:23:29.514Z,28.51
2018-07-21T16:26:05.200Z,28.42
2018-07-21T16:28:33.974Z,28.24
2018-07-21T16:31:02.435Z,28.08
2018-07-21T16:33:31.270Z,28.03
2018-07-21T16:35:59.993Z,27.87
2018-07-21T16:38:28.958Z,27.67
2018-07-21T16:40:57.417Z,27.66
2018-07-21T16:43:26.081Z,28.16
2018-07-21T16:45:55.907Z,29.19
2018-07-21T16:48:24.676Z,29.99
2018-07-21T16:50:53.871Z,30.51
2018-07-21T16:53:24.013Z,29.91
2018-07-21T16:55:52.458Z,29.45
2018-07-21T16:58:21.250Z,28.90
2018-07-21T17:00:50.088Z,28.55
2018-07-21T17:03:18.534Z,28.16
2018-07-21T17:05:47.325Z,28.09
2018-07-21T17:08:16.465Z,27.78
2018-07-21T17:10:45.809Z,27.58
2018-07-21T17:13:14.562Z,27.39
2018-07-21T17:15:43.294Z,27.27
2018-07-21T17:18:11.975Z,27.18
2018-07-21T17:20:40.749Z,27.12
2018-07-21T17:23:09.472Z,27.08
2018-07-21T17:25:38.358Z,27.06
2018-07-21T17:28:07.333Z,27.04
2018-07-21T17:30:35.808Z,26.96
2018-07-21T17:33:04.326Z,26.77
2018-07-21T17:35:33.065Z,26.61
2018-07-21T17:38:01.990Z,26.52
2018-07-21T17:40:30.733Z,26.40
2018-07-21T17:42:59.733Z,26.31
2018-07-21T17:45:28.392Z,26.27
2018-07-21T17:47:56.825Z,26.16
2018-07-21T17:50:25.384Z,26.10
2018-07-21T17:53:01.337Z,26.03
2018-07-21T17:55:29.977Z,25.94
2018-07-21T17:57:59.021Z,25.86
2018-07-21T18:00:27.754Z,25.79
2018-07-21T18:02:56.219Z,25.67
2018-07-21T18:05:25.218Z,25.58
2018-07-21T18:07:53.953Z,25.48
2018-07-21T18:10:22.708Z,25.40
2018-07-21T18:12:51.388Z,25.33
2018-07-21T18:15:20.161Z,25.27
2018-07-21T18:17:49.001Z,25.21
2018-07-21T18:20:17.638Z,25.16
2018-07-21T18:22:46.509Z,25.08
2018-07-21T18:25:15.424Z,25.01
2018-07-21T18:27:43.863Z,24.98
2018-07-21T18:30:12.426Z,24.93
2018-07-21T18:32:42.661Z,24.86
2018-07-21T18:35:11.329Z,24.83
2018-07-21T18:37:40.001Z,24.79
2018-07-21T18:40:08.529Z,24.74
2018-07-21T18:42:37.380Z,24.72
2018-07-21T18:45:06.625Z,24.69
2018-07-21T18:47:35.351Z,24.65
2018-07-21T18:50:04.443Z,24.64
2018-07-21T18:52:33.317Z,24.57
2018-07-21T18:55:01.822Z,24.55
2018-07-21T18:57:31.061Z,24.62
2018-07-21T18:59:59.903Z,24.68
2018-07-21T19:02:29.189Z,24.79
2018-07-21T19:04:58.063Z,24.82
2018-07-21T19:07:26.815Z,24.76
2018-07-21T19:09:55.667Z,24.75
2018-07-21T19:12:30.012Z,24.72
2018-07-21T19:14:58.506Z,24.70
2018-07-21T19:17:26.937Z,24.61
2018-07-21T19:20:00.689Z,24.53
2018-07-21T19:22:29.697Z,24.50
2018-07-21T19:24:59.919Z,24.44
2018-07-21T19:27:33.133Z,24.39
2018-07-21T19:30:02.493Z,24.32
2018-07-21T19:32:38.165Z,24.25
2018-07-21T19:35:07.057Z,24.19
2018-07-21T19:37:40.895Z,24.14
2018-07-21T19:40:09.770Z,24.09
2018-07-21T19:42:38.497Z,24.07
2018-07-21T19:45:06.966Z,24.02
2018-07-21T19:47:35.779Z,23.97
2018-07-21T19:50:04.437Z,23.90
2018-07-21T19:52:33.313Z,23.79
2018-07-21T19:55:02.366Z,23.59
2018-07-21T19:57:31.169Z,23.52
2018-07-21T20:00:00.081Z,23.36
2018-07-21T20:02:28.807Z,23.18
2018-07-21T20:04:57.286Z,23.05
2018-07-21T20:07:26.108Z,22.94
2018-07-21T20:09:55.772Z,22.89
2018-07-21T20:12:25.328Z,22.85
2018-07-21T20:14:53.896Z,22.84
2018-07-21T20:17:23.395Z,22.79
2018-07-21T20:19:51.764Z,22.73
2018-07-21T20:22:20.249Z,22.70
2018-07-21T20:24:48.821Z,22.70
2018-07-21T20:27:19.413Z,22.72
2018-07-21T20:29:47.884Z,22.75
2018-07-21T20:32:16.557Z,22.73
2018-07-21T20:34:46.394Z,22.73
2018-07-21T20:37:15.734Z,22.68
2018-07-21T20:42:13.010Z,22.59
2018-07-21T20:44:41.498Z,22.55
2018-07-21T20:47:10.309Z,22.52
2018-07-21T20:49:40.216Z,22.50
2018-07-21T20:52:09.565Z,22.45
2018-07-21T20:54:38.134Z,22.41
2018-07-21T20:57:06.971Z,22.36
2018-07-21T20:59:35.466Z,22.29
2018-07-21T21:02:03.941Z,22.25
2018-07-21T21:04:32.678Z,22.21
2018-07-21T21:07:01.192Z,22.16
2018-07-21T21:09:29.753Z,22.14
2018-07-21T21:11:58.475Z,22.10
2018-07-21T21:14:27.189Z,22.03
2018-07-21T21:16:56.074Z,22.00
2018-07-21T21:19:24.554Z,22.00
2018-07-21T21:21:53.261Z,22.00
2018-07-21T21:24:22.021Z,22.00
2018-07-21T21:26:50.561Z,21.99
2018-07-21T21:29:19.715Z,21.99
2018-07-21T21:31:48.693Z,21.97
2018-07-21T21:34:17.121Z,21.93
2018-07-21T21:36:45.611Z,21.90
2018-07-21T21:39:14.765Z,21.87
2018-07-21T21:41:43.441Z,21.82
2018-07-21T21:44:12.245Z,21.80
2018-07-21T21:46:41.113Z,21.76
2018-07-21T21:49:09.563Z,21.73
2018-07-21T21:51:38.023Z,21.71
2018-07-21T21:54:07.171Z,21.67
2018-07-21T21:56:35.660Z,21.62
2018-07-21T21:59:04.225Z,21.61
2018-07-21T22:01:33.081Z,21.58
2018-07-21T22:04:01.812Z,21.55
2018-07-21T22:06:30.458Z,21.53
2018-07-21T22:08:58.909Z,21.51
2018-07-21T22:11:27.817Z,21.47
2018-07-21T22:13:56.563Z,21.46
2018-07-21T22:16:24.991Z,21.46
2018-07-21T22:18:54.226Z,21.43
2018-07-21T22:21:23.549Z,21.39
2018-07-21T22:23:52.608Z,21.36
2018-07-21T22:26:21.099Z,21.29
2018-07-21T22:28:50.073Z,21.24
2018-07-21T22:31:19.108Z,21.20
2018-07-21T22:33:47.767Z,21.17
2018-07-21T22:36:16.541Z,21.12
2018-07-21T22:38:45.745Z,21.11
2018-07-21T22:41:14.201Z,21.10
2018-07-21T22:43:42.718Z,21.05
2018-07-21T22:46:12.343Z,20.99
2018-07-21T22:48:40.794Z,20.92
2018-07-21T22:51:09.285Z,20.85
2018-07-21T22:53:38.073Z,20.80
2018-07-21T22:56:07.229Z,20.81
2018-07-21T22:58:35.707Z,20.78
2018-07-21T23:01:04.863Z,20.73
2018-07-21T23:03:33.591Z,20.72
2018-07-21T23:06:02.086Z,20.69
2018-07-21T23:08:30.793Z,20.67
2018-07-21T23:10:59.241Z,20.67
2018-07-21T23:13:27.954Z,20.64
2018-07-21T23:15:56.848Z,20.64
2018-07-21T23:18:25.455Z,20.62
2018-07-21T23:20:54.415Z,20.61
2018-07-21T23:23:23.220Z,20.60
2018-07-21T23:25:52.896Z,20.56
2018-07-21T23:28:21.965Z,20.53
2018-07-21T23:30:51.129Z,20.49
2018-07-21T23:33:19.764Z,20.45
2018-07-21T23:35:48.681Z,20.39
2018-07-21T23:38:17.558Z,20.34
2018-07-21T23:40:46.023Z,20.29
2018-07-21T23:43:14.722Z,20.23
2018-07-21T23:45:43.533Z,20.18
2018-07-21T23:48:11.981Z,20.13
2018-07-21T23:50:40.486Z,20.07
2018-07-21T23:53:09.356Z,20.02
2018-07-21T23:55:37.792Z,19.95
2018-07-21T23:58:07.031Z,19.89
